Weather Forecast for Al Ain Airport 
Saturday, June 24, 2017 (20:36 UTC)
Al Ain International Airport
ICAO Code: OMAL
IATA Code: AAN
  • METAR OMAL 242000Z 35005KT CAVOK 34/23 Q1001 NOSIG=
  • TAF OMAL 241700Z 2418/2600 33008KT 8000 NSC BECMG 2422/2500 18006KT BECMG 2506/2508 30012KT=
AL AIN (OMAL) 5 DAY OUTLOOK:
Sunday, 25/Jun/2017
HIGH:
45°C
LOW:
30°C
MIN. VISIBILITY:
6000 meters
WIND (DIRECTION/SPEED):
Light and variable wind becoming NW at 10 - 15 knots (19 - 28 km/h)
WEATHER:
Sunny, becoming partly cloudy later.
RAINFALL:
Nil
Monday, 26/Jun/2017
HIGH:
46°C
LOW:
30°C
MIN. VISIBILITY:
6000 meters
WIND (DIRECTION/SPEED):
SSW at 5 - 7 knots (9 - 13 km/h) becoming NW at 10 - 15 knots (19 - 28 km/h)
WEATHER:
Partly Cloudy.
RAINFALL:
Nil
Tuesday, 27/Jun/2017
HIGH:
45°C
LOW:
30°C
MIN. VISIBILITY:
6000 meters
WIND (DIRECTION/SPEED):
Light and variable wind becoming E at 10 - 15 knots (19 - 28 km/h)
WEATHER:
Sunny.
RAINFALL:
Nil
Wednesday, 28/Jun/2017
HIGH:
45°C
LOW:
31°C
MIN. VISIBILITY:
7000 meters
WIND (DIRECTION/SPEED):
NNE at 3 - 5 knots (6 - 9 km/h) becoming E at 7 - 10 knots (13 - 19 km/h)
WEATHER:
Partly Cloudy.
RAINFALL:
Nil
Thursday, 29/Jun/2017
HIGH:
46°C
LOW:
31°C
MIN. VISIBILITY:
7000 meters
WIND (DIRECTION/SPEED):
SSE at 7 - 10 knots (13 - 19 km/h) becoming NNW at 10 - 15 knots (19 - 28 km/h)
WEATHER:
Sunny
RAINFALL:
Nil